createdAt,value
2022-10-14T00:02:07.741Z,38.83
2022-10-14T00:04:38.465Z,37.55
2022-10-14T00:07:07.489Z,37.17
2022-10-14T00:09:36.671Z,38.17
2022-10-14T00:12:08.324Z,38.10
2022-10-14T00:14:37.476Z,39.72
2022-10-14T00:17:06.629Z,35.95
2022-10-14T00:19:36.992Z,38.42
2022-10-14T00:22:06.056Z,37.50
2022-10-14T00:24:35.181Z,38.05
2022-10-14T00:27:04.260Z,39.22
2022-10-14T00:29:33.405Z,41.60
2022-10-14T00:32:02.647Z,44.55
2022-10-14T00:34:31.919Z,45.72
2022-10-14T00:37:03.788Z,43.22
2022-10-14T00:39:33.683Z,48.08
2022-10-14T00:42:02.756Z,47.22
2022-10-14T00:45:07.031Z,46.58
2022-10-14T00:47:38.244Z,43.42
2022-10-14T00:50:12.883Z,38.92
2022-10-14T00:52:44.136Z,37.95
2022-10-14T00:55:19.348Z,39.25
2022-10-14T00:57:48.611Z,38.55
2022-10-14T01:00:20.743Z,35.10
2022-10-14T01:02:50.557Z,38.85
2022-10-14T01:05:21.249Z,37.63
2022-10-14T01:08:09.880Z,37.92
2022-10-14T01:10:46.889Z,36.70
2022-10-14T01:13:26.867Z,36.10
2022-10-14T01:16:15.727Z,36.80
2022-10-14T01:19:17.374Z,37.22
2022-10-14T01:21:50.765Z,36.35
2022-10-14T01:25:04.085Z,36.30
2022-10-14T01:27:56.211Z,34.50
2022-10-14T01:30:31.207Z,32.85
2022-10-14T01:33:12.829Z,32.80
2022-10-14T01:35:55.881Z,31.48
2022-10-14T01:38:31.862Z,34.58
2022-10-14T01:41:09.704Z,36.20
2022-10-14T01:43:41.204Z,35.42
2022-10-14T01:46:13.827Z,36.72
2022-10-14T01:48:49.216Z,36.05
2022-10-14T01:51:24.785Z,34.13
2022-10-14T01:54:02.833Z,36.05
2022-10-14T01:56:37.046Z,34.33
2022-10-14T01:59:12.962Z,31.60
2022-10-14T02:01:43.556Z,31.55
2022-10-14T02:04:17.409Z,31.38
2022-10-14T02:06:53.304Z,33.40
2022-10-14T02:09:31.735Z,34.70
2022-10-14T02:12:18.835Z,34.88
2022-10-14T02:14:58.624Z,37.38
2022-10-14T02:17:34.163Z,33.53
2022-10-14T02:20:09.724Z,32.17
2022-10-14T02:22:43.365Z,31.27
2022-10-14T02:25:20.504Z,34.70
2022-10-14T02:27:52.529Z,34.10
2022-10-14T02:30:22.833Z,32.05
2022-10-14T02:33:02.230Z,35.57
2022-10-14T02:35:32.796Z,39.72
2022-10-14T02:38:08.833Z,42.58
2022-10-14T02:40:45.629Z,39.80
2022-10-14T02:43:15.011Z,44.92
2022-10-14T02:45:45.783Z,43.78
2022-10-14T02:48:16.274Z,42.15
2022-10-14T02:50:45.442Z,41.67
2022-10-14T02:53:18.359Z,42.10
2022-10-14T02:55:48.370Z,46.67
2022-10-14T02:58:17.405Z,49.83
2022-10-14T03:00:46.453Z,45.65
2022-10-14T03:03:17.260Z,44.20
2022-10-14T03:05:46.404Z,45.22
2022-10-14T03:08:16.557Z,45.20
2022-10-14T03:10:48.932Z,46.10
2022-10-14T03:13:18.678Z,45.53
2022-10-14T03:15:50.750Z,41.55
2022-10-14T03:18:22.911Z,40.03
2022-10-14T03:20:57.289Z,42.42
2022-10-14T03:23:33.576Z,39.63
2022-10-14T03:26:02.693Z,39.33
2022-10-14T03:28:37.515Z,38.45
2022-10-14T03:31:19.041Z,38.38
2022-10-14T03:34:18.695Z,39.97
2022-10-14T03:36:54.113Z,40.75
2022-10-14T03:39:24.009Z,34.95
2022-10-14T03:41:53.775Z,37.92
2022-10-14T03:44:33.022Z,38.55
2022-10-14T03:47:14.608Z,39.85
2022-10-14T03:49:45.370Z,43.13
2022-10-14T03:52:22.303Z,42.67
2022-10-14T03:55:01.981Z,47.15
2022-10-14T03:57:32.176Z,46.70
2022-10-14T04:00:02.882Z,47.35
2022-10-14T04:02:43.140Z,44.30
2022-10-14T04:05:32.594Z,50.22
2022-10-14T04:08:09.496Z,45.63
2022-10-14T04:10:40.338Z,44.35
2022-10-14T04:13:12.156Z,45.25
2022-10-14T04:15:42.639Z,42.70
2022-10-14T04:18:29.414Z,42.20
2022-10-14T04:21:04.337Z,41.78
2022-10-14T04:23:34.583Z,39.50
2022-10-14T04:26:11.898Z,39.03
2022-10-14T04:28:41.863Z,35.83
2022-10-14T04:31:17.566Z,35.33
2022-10-14T04:33:55.751Z,34.42
2022-10-14T04:36:33.323Z,35.28
2022-10-14T04:39:04.670Z,35.25
2022-10-14T04:41:37.726Z,34.30
2022-10-14T04:44:07.167Z,34.67
2022-10-14T04:46:50.369Z,37.67
2022-10-14T04:50:14.136Z,42.97
2022-10-14T04:55:33.999Z,37.80
2022-10-14T04:58:07.589Z,43.42
2022-10-14T05:00:44.866Z,53.70
2022-10-14T05:03:33.914Z,48.67
2022-10-14T05:06:03.629Z,44.83
2022-10-14T05:08:36.570Z,53.70
2022-10-14T05:11:10.672Z,56.10
2022-10-14T05:13:48.865Z,44.65
2022-10-14T05:26:26.789Z,44.63
2022-10-14T05:28:58.203Z,43.08
2022-10-14T05:36:41.424Z,38.47
2022-10-14T05:39:11.625Z,37.40
2022-10-14T05:41:58.038Z,37.20
2022-10-14T05:44:29.739Z,36.20
2022-10-14T05:47:01.376Z,36.50
2022-10-14T05:49:32.596Z,38.28
2022-10-14T05:52:05.637Z,47.33
2022-10-14T05:54:35.818Z,46.50
2022-10-14T05:57:10.070Z,43.60
2022-10-14T05:59:39.341Z,45.95
2022-10-14T06:02:09.063Z,42.65
2022-10-14T06:04:41.051Z,42.55
2022-10-14T06:07:16.532Z,43.03
2022-10-14T06:09:45.682Z,39.75
2022-10-14T06:12:16.388Z,39.72
2022-10-14T06:14:46.120Z,40.72
2022-10-14T06:17:17.544Z,37.45
2022-10-14T06:19:47.695Z,39.28
2022-10-14T06:22:16.877Z,38.95
2022-10-14T06:24:45.944Z,36.83
2022-10-14T06:27:16.433Z,35.17
2022-10-14T06:29:47.109Z,35.00
2022-10-14T06:32:16.677Z,36.47
2022-10-14T06:34:45.957Z,35.22
2022-10-14T06:37:15.926Z,35.65
2022-10-14T06:39:47.681Z,36.08
2022-10-14T06:42:18.686Z,35.38
2022-10-14T06:44:48.294Z,32.20
2022-10-14T06:47:18.041Z,34.13
2022-10-14T06:49:47.208Z,34.75
2022-10-14T06:52:16.535Z,34.88
2022-10-14T06:54:48.308Z,39.67
2022-10-14T06:57:19.114Z,38.22
2022-10-14T06:59:48.200Z,36.00
2022-10-14T07:02:17.470Z,35.22
2022-10-14T07:04:47.443Z,34.35
2022-10-14T07:07:16.705Z,32.42
2022-10-14T07:09:47.052Z,33.40
2022-10-14T07:12:34.367Z,32.88
2022-10-14T07:15:06.800Z,36.10
2022-10-14T07:18:01.534Z,32.47
2022-10-14T07:21:18.742Z,29.90
2022-10-14T07:23:47.985Z,29.20
2022-10-14T07:26:17.740Z,27.63
2022-10-14T07:28:48.482Z,27.85
2022-10-14T07:31:18.351Z,26.95
2022-10-14T07:33:47.510Z,24.75
2022-10-14T07:36:22.374Z,24.35
2022-10-14T07:38:52.326Z,23.95
2022-10-14T07:41:24.786Z,24.10
2022-10-14T07:44:02.481Z,24.58
2022-10-14T07:51:11.657Z,23.90
2022-10-14T07:53:40.874Z,24.38
2022-10-14T08:43:00.619Z,27.42
2022-10-14T08:45:35.181Z,28.00
2022-10-14T08:48:12.859Z,27.05
2022-10-14T08:50:50.875Z,26.08
2022-10-14T08:53:24.094Z,25.00
2022-10-14T08:56:00.227Z,26.02
2022-10-14T08:58:35.576Z,25.35
2022-10-14T09:01:16.173Z,25.00
2022-10-14T09:03:46.694Z,25.15
2022-10-14T09:06:23.697Z,24.35
2022-10-14T09:08:57.207Z,24.38
2022-10-14T09:11:29.575Z,25.88
2022-10-14T09:14:03.931Z,24.58
2022-10-14T09:17:44.279Z,25.58
2022-10-14T09:20:20.706Z,24.80
2022-10-14T09:23:03.514Z,24.08
2022-10-14T09:25:36.337Z,24.15
2022-10-14T09:28:05.685Z,24.98
2022-10-14T09:30:40.845Z,24.92
2022-10-14T09:33:20.017Z,23.50
2022-10-14T09:35:50.230Z,23.08
2022-10-14T09:38:20.401Z,24.35
2022-10-14T09:40:57.352Z,23.10
2022-10-14T09:43:29.543Z,23.05
2022-10-14T09:46:03.277Z,23.90
2022-10-14T09:48:38.819Z,22.05
2022-10-14T09:51:10.579Z,21.75
2022-10-14T09:53:45.293Z,23.42
2022-10-14T09:56:15.371Z,23.33
2022-10-14T09:58:51.117Z,24.67
2022-10-14T10:01:24.253Z,23.25
2022-10-14T10:03:55.353Z,22.85
2022-10-14T10:06:53.189Z,22.90
2022-10-14T10:09:23.165Z,23.25
2022-10-14T10:11:53.167Z,23.52
2022-10-14T10:14:25.928Z,23.67
2022-10-14T10:17:18.899Z,25.25
2022-10-14T10:19:51.604Z,25.30
2022-10-14T10:22:46.576Z,24.15
2022-10-14T10:25:26.218Z,25.77
2022-10-14T10:27:59.515Z,27.85
2022-10-14T10:31:30.238Z,26.30
2022-10-14T10:34:14.576Z,27.30
2022-10-14T10:36:50.868Z,27.65
2022-10-14T10:39:36.200Z,28.20
2022-10-14T10:42:16.667Z,28.25
2022-10-14T10:45:07.675Z,28.08
2022-10-14T10:47:45.887Z,29.67
2022-10-14T10:50:37.256Z,27.65
2022-10-14T10:53:40.981Z,25.90
2022-10-14T10:56:25.938Z,25.20
2022-10-14T10:59:21.225Z,25.67
2022-10-14T11:02:03.990Z,26.77
2022-10-14T11:04:43.065Z,27.17
2022-10-14T11:07:41.126Z,28.58
2022-10-14T11:10:38.960Z,29.35
2022-10-14T11:13:18.589Z,26.73
2022-10-14T11:16:02.404Z,28.15
2022-10-14T11:18:44.746Z,28.38
2022-10-14T11:21:34.762Z,27.73
2022-10-14T11:27:08.851Z,27.88
2022-10-14T11:29:54.836Z,27.05
2022-10-14T11:32:38.657Z,29.35
2022-10-14T11:35:26.538Z,28.75
2022-10-14T11:38:31.164Z,28.45
2022-10-14T11:41:09.748Z,28.40
2022-10-14T11:43:49.809Z,27.23
2022-10-14T11:46:22.527Z,28.27
2022-10-14T11:48:57.759Z,27.80
2022-10-14T11:51:36.311Z,27.90
2022-10-14T11:54:13.001Z,30.00
2022-10-14T11:56:55.019Z,29.80
2022-10-14T11:59:46.443Z,30.80
2022-10-14T12:02:44.319Z,29.90
2022-10-14T12:05:22.564Z,30.52
2022-10-14T12:08:47.238Z,30.45
2022-10-14T12:11:29.791Z,33.38
2022-10-14T12:18:31.244Z,30.83
2022-10-14T12:21:14.523Z,32.05
2022-10-14T12:24:15.091Z,32.20
2022-10-14T12:26:57.901Z,32.40
2022-10-14T12:29:35.867Z,33.38
2022-10-14T12:32:21.884Z,33.40
2022-10-14T12:34:57.193Z,33.33
2022-10-14T12:38:23.158Z,33.40
2022-10-14T12:40:53.145Z,34.80
2022-10-14T12:43:30.715Z,35.38
2022-10-14T12:46:47.274Z,34.65
2022-10-14T12:49:32.610Z,33.95
2022-10-14T12:52:07.376Z,34.00
2022-10-14T12:54:47.177Z,35.38
2022-10-14T12:57:30.477Z,34.33
2022-10-14T13:00:08.170Z,34.88
2022-10-14T13:02:44.582Z,35.72
2022-10-14T13:05:33.301Z,37.10
2022-10-14T13:08:27.218Z,35.25
2022-10-14T13:11:13.475Z,35.35
2022-10-14T13:13:52.826Z,35.58
2022-10-14T13:17:29.178Z,37.30
2022-10-14T13:19:58.480Z,35.75
2022-10-14T13:22:40.841Z,37.53
2022-10-14T13:25:21.570Z,37.00
2022-10-14T13:28:15.225Z,35.83
2022-10-14T13:31:01.146Z,34.70
2022-10-14T13:33:39.689Z,33.40
2022-10-14T13:36:17.543Z,34.97
2022-10-14T13:38:57.117Z,32.97
2022-10-14T13:41:31.444Z,33.28
2022-10-14T13:44:08.133Z,32.72
2022-10-14T13:46:42.222Z,32.67
2022-10-14T13:49:19.447Z,33.15
2022-10-14T13:54:23.271Z,35.42
2022-10-14T14:00:38.807Z,32.50
2022-10-14T14:02:48.085Z,35.05
2022-10-14T14:05:24.453Z,31.98
2022-10-14T14:11:14.494Z,32.47
2022-10-14T14:14:00.608Z,32.67
2022-10-14T14:16:36.550Z,32.53
2022-10-14T14:19:10.137Z,30.88
2022-10-14T14:21:39.751Z,33.65
2022-10-14T14:24:19.775Z,32.35
2022-10-14T14:26:58.206Z,32.92
2022-10-14T14:29:32.123Z,33.15
2022-10-14T14:32:07.052Z,33.30
2022-10-14T14:37:40.191Z,34.28
2022-10-14T14:40:17.856Z,32.75
2022-10-14T14:42:50.164Z,32.30
2022-10-14T14:45:25.524Z,32.50
2022-10-14T14:47:58.076Z,31.05
2022-10-14T14:50:33.971Z,33.88
2022-10-14T14:53:08.371Z,33.20
2022-10-14T14:55:47.948Z,32.08
2022-10-14T14:58:27.542Z,31.88
2022-10-14T15:00:58.861Z,31.55
2022-10-14T15:03:32.184Z,33.78
2022-10-14T15:06:05.245Z,32.45
2022-10-14T15:08:38.082Z,34.92
2022-10-14T15:11:07.384Z,34.00
2022-10-14T15:13:52.825Z,33.85
2022-10-14T15:16:42.336Z,34.38
2022-10-14T15:19:34.206Z,33.38
2022-10-14T15:22:29.568Z,35.53
2022-10-14T15:25:09.479Z,35.40
2022-10-14T15:28:00.818Z,35.35
2022-10-14T15:30:34.997Z,36.28
2022-10-14T15:33:17.604Z,37.85
2022-10-14T15:35:54.745Z,36.95
2022-10-14T15:38:24.313Z,37.72
2022-10-14T15:40:55.065Z,39.65
2022-10-14T15:43:25.873Z,39.15
2022-10-14T15:46:17.431Z,40.42
2022-10-14T15:48:52.234Z,41.65
2022-10-14T15:51:24.260Z,40.95
2022-10-14T15:53:53.267Z,43.08
2022-10-14T15:56:22.297Z,41.20
2022-10-14T15:58:51.524Z,42.72
2022-10-14T16:01:23.322Z,42.10
2022-10-14T16:03:54.303Z,44.30
2022-10-14T16:06:24.576Z,42.25
2022-10-14T16:08:53.667Z,46.90
2022-10-14T16:11:26.795Z,44.92
2022-10-14T16:13:56.208Z,43.97
2022-10-14T16:16:32.389Z,43.50
2022-10-14T16:19:03.655Z,44.83
2022-10-14T16:21:33.192Z,43.95
2022-10-14T16:24:06.831Z,45.40
2022-10-14T16:26:37.319Z,44.90
2022-10-14T16:29:08.116Z,45.45
2022-10-14T16:31:38.298Z,45.67
2022-10-14T16:34:10.844Z,43.58
2022-10-14T16:36:40.755Z,44.33
2022-10-14T16:39:13.040Z,46.10
2022-10-14T16:41:42.097Z,46.65
2022-10-14T16:44:24.789Z,48.90
2022-10-14T16:47:12.588Z,52.13
2022-10-14T16:49:46.204Z,50.38
2022-10-14T16:52:16.506Z,48.58
2022-10-14T16:54:46.148Z,46.35
2022-10-14T16:57:15.495Z,46.28
2022-10-14T16:59:44.553Z,49.28
2022-10-14T17:02:16.972Z,46.45
2022-10-14T17:04:48.170Z,43.70
2022-10-14T17:07:17.544Z,47.33
2022-10-14T17:09:46.560Z,46.22
2022-10-14T17:12:15.797Z,48.33
2022-10-14T17:14:44.853Z,46.47
2022-10-14T17:17:14.014Z,43.40
2022-10-14T17:19:43.143Z,42.15
2022-10-14T17:22:13.579Z,45.70
2022-10-14T17:24:42.705Z,44.78
2022-10-14T17:27:11.808Z,48.05
2022-10-14T17:29:40.987Z,46.65
2022-10-14T17:32:10.217Z,46.50
2022-10-14T17:34:39.249Z,47.42
2022-10-14T17:39:44.471Z,52.28
2022-10-14T17:42:13.538Z,54.25
2022-10-14T17:44:45.139Z,50.38
2022-10-14T17:47:14.278Z,47.25
2022-10-14T17:49:43.375Z,46.92
2022-10-14T17:52:12.759Z,45.85
2022-10-14T17:54:41.808Z,44.72
2022-10-14T17:57:12.316Z,50.50
2022-10-14T17:59:41.432Z,54.03
2022-10-14T18:02:17.698Z,55.80
2022-10-14T18:04:48.266Z,56.75
2022-10-14T18:07:19.099Z,53.67
2022-10-14T18:09:49.225Z,55.25
2022-10-14T18:12:20.240Z,50.45
2022-10-14T18:14:49.887Z,54.22
2022-10-14T18:17:19.229Z,53.45
2022-10-14T18:19:52.196Z,56.17
2022-10-14T18:22:21.832Z,60.30
2022-10-14T18:24:51.357Z,58.50
2022-10-14T18:27:22.343Z,57.40
2022-10-14T18:29:51.904Z,62.30
2022-10-14T18:32:21.421Z,61.05
2022-10-14T18:34:51.037Z,65.78
2022-10-14T18:37:20.054Z,67.03
2022-10-14T18:39:49.407Z,70.07
2022-10-14T18:42:20.944Z,67.57
2022-10-14T18:44:52.066Z,64.10
2022-10-14T18:47:21.360Z,62.72
2022-10-14T18:49:51.243Z,62.67
2022-10-14T18:52:21.244Z,70.47
2022-10-14T18:54:50.575Z,76.13
2022-10-14T18:57:19.692Z,81.68
2022-10-14T18:59:52.135Z,81.72
2022-10-14T19:02:21.557Z,73.13
2022-10-14T19:04:51.089Z,72.55
2022-10-14T19:07:20.288Z,67.75
2022-10-14T19:09:51.854Z,68.32
2022-10-14T19:12:40.730Z,68.80
2022-10-14T19:15:12.569Z,65.28
2022-10-14T19:17:43.180Z,64.13
2022-10-14T19:20:12.548Z,64.13
2022-10-14T19:22:44.938Z,65.78
2022-10-14T19:25:13.986Z,63.53
2022-10-14T19:27:43.380Z,67.60
2022-10-14T19:30:14.239Z,69.20
2022-10-14T19:32:43.480Z,75.10
2022-10-14T19:35:12.602Z,75.80
2022-10-14T19:37:41.868Z,75.50
2022-10-14T19:40:12.101Z,71.60
2022-10-14T19:42:43.209Z,75.07
2022-10-14T19:45:14.533Z,78.53
2022-10-14T19:47:43.855Z,74.90
2022-10-14T19:50:13.332Z,78.82
2022-10-14T19:52:42.392Z,72.95
2022-10-14T19:55:14.584Z,73.85
2022-10-14T19:57:43.897Z,67.97
2022-10-14T20:00:16.207Z,68.78
2022-10-14T20:02:46.350Z,70.15
2022-10-14T20:05:17.195Z,69.18
2022-10-14T20:07:46.898Z,62.55
2022-10-14T20:10:16.683Z,61.55
2022-10-14T20:12:46.045Z,58.05
2022-10-14T20:15:18.117Z,59.70
2022-10-14T20:17:47.720Z,60.20
2022-10-14T20:20:16.984Z,57.50
2022-10-14T20:22:46.388Z,57.22
2022-10-14T20:25:15.688Z,58.97
2022-10-14T20:27:44.680Z,60.28
2022-10-14T20:30:16.261Z,59.35
2022-10-14T20:32:45.380Z,59.35
2022-10-14T20:35:15.256Z,64.47
2022-10-14T20:37:44.524Z,62.67
2022-10-14T20:40:14.114Z,67.32
2022-10-14T20:42:43.265Z,70.50
2022-10-14T20:45:12.546Z,68.10
2022-10-14T20:47:43.024Z,69.13
2022-10-14T20:50:12.180Z,74.47
2022-10-14T20:52:41.238Z,79.82
2022-10-14T20:55:10.675Z,81.68
2022-10-14T20:57:39.805Z,87.20
2022-10-14T21:00:10.774Z,96.18
2022-10-14T21:05:12.299Z,84.68
2022-10-14T21:07:41.437Z,81.78
2022-10-14T21:10:11.052Z,81.72
2022-10-14T21:12:40.464Z,78.35
2022-10-14T21:15:12.460Z,76.18
2022-10-14T21:17:49.285Z,73.25
2022-10-14T21:20:18.625Z,75.03
2022-10-14T21:22:47.716Z,70.28
2022-10-14T21:25:17.168Z,65.60
2022-10-14T21:27:46.254Z,64.13
2022-10-14T21:30:15.686Z,61.20
2022-10-14T21:32:46.123Z,58.22
2022-10-14T21:35:15.341Z,62.47
2022-10-14T21:37:44.370Z,64.63
2022-10-14T21:40:13.964Z,61.28
2022-10-14T21:42:45.443Z,61.85
2022-10-14T21:45:14.616Z,62.88
2022-10-14T21:47:45.327Z,63.80
2022-10-14T21:50:14.447Z,67.15
2022-10-14T21:52:43.553Z,64.05
2022-10-14T21:55:12.660Z,59.10
2022-10-14T21:57:41.908Z,56.42
2022-10-14T22:00:13.131Z,56.03
2022-10-14T22:02:46.012Z,53.42
2022-10-14T22:05:15.228Z,56.40
2022-10-14T22:07:44.338Z,58.78
2022-10-14T22:10:27.426Z,62.55
2022-10-14T22:12:57.992Z,58.50
2022-10-14T22:15:27.527Z,59.25
2022-10-14T22:17:58.107Z,60.67
2022-10-14T22:20:27.394Z,61.45
2022-10-14T22:22:57.825Z,62.22
2022-10-14T22:25:26.955Z,63.83
2022-10-14T22:27:55.924Z,66.90
2022-10-14T22:30:25.162Z,64.65
2022-10-14T22:32:54.554Z,61.65
2022-10-14T22:35:25.717Z,66.18
2022-10-14T22:37:54.843Z,63.40
2022-10-14T22:40:24.037Z,66.00
2022-10-14T22:42:56.442Z,72.38
2022-10-14T22:45:27.032Z,68.93
2022-10-14T22:47:56.136Z,70.65
2022-10-14T22:50:26.722Z,70.57
2022-10-14T22:52:56.259Z,79.65
2022-10-14T22:55:25.421Z,79.93
2022-10-14T22:57:54.492Z,88.88
2022-10-14T23:00:23.599Z,90.05
2022-10-14T23:02:52.867Z,88.85
2022-10-14T23:05:22.022Z,92.07
2022-10-14T23:07:52.631Z,94.57
2022-10-14T23:10:21.724Z,92.90
2022-10-14T23:12:50.730Z,88.25
2022-10-14T23:15:19.784Z,82.07
2022-10-14T23:17:49.044Z,89.25
2022-10-14T23:20:18.220Z,82.78
2022-10-14T23:22:47.384Z,78.82
2022-10-14T23:25:18.075Z,76.50
2022-10-14T23:27:47.204Z,68.80
2022-10-14T23:30:16.818Z,65.95
2022-10-14T23:32:46.052Z,65.18
2022-10-14T23:35:15.512Z,62.40
2022-10-14T23:37:44.544Z,63.85
2022-10-14T23:40:14.424Z,58.95
2022-10-14T23:42:44.920Z,59.80
2022-10-14T23:45:14.250Z,61.53
2022-10-14T23:47:43.274Z,60.50
2022-10-14T23:50:12.297Z,57.65
2022-10-14T23:52:41.436Z,55.15
2022-10-14T23:55:10.922Z,53.75
2022-10-14T23:57:40.373Z,56.65
